sensor_id;sensor_type;location;lat;lon;timestamp;temperature;humidity
3478;DHT22;37937;61.490;23.506;2023-06-05T00:00:57;8.00;44.30
3478;DHT22;37937;61.490;23.506;2023-06-05T00:03:23;8.00;46.20
3478;DHT22;37937;61.490;23.506;2023-06-05T00:05:49;8.10;45.30
3478;DHT22;37937;61.490;23.506;2023-06-05T00:08:15;8.00;48.00
3478;DHT22;37937;61.490;23.506;2023-06-05T00:10:41;8.00;45.40
3478;DHT22;37937;61.490;23.506;2023-06-05T00:13:07;8.00;50.50
3478;DHT22;37937;61.490;23.506;2023-06-05T00:15:33;8.00;50.30
3478;DHT22;37937;61.490;23.506;2023-06-05T00:18:01;8.10;45.40
3478;DHT22;37937;61.490;23.506;2023-06-05T00:20:27;8.10;46.80
3478;DHT22;37937;61.490;23.506;2023-06-05T00:22:53;8.10;48.10
3478;DHT22;37937;61.490;23.506;2023-06-05T00:25:20;8.10;46.80
3478;DHT22;37937;61.490;23.506;2023-06-05T00:27:45;8.00;50.10
3478;DHT22;37937;61.490;23.506;2023-06-05T00:30:11;8.10;49.10
3478;DHT22;37937;61.490;23.506;2023-06-05T00:32:37;8.10;52.90
3478;DHT22;37937;61.490;23.506;2023-06-05T00:35:03;8.10;51.80
3478;DHT22;37937;61.490;23.506;2023-06-05T00:37:28;8.10;52.70
3478;DHT22;37937;61.490;23.506;2023-06-05T00:39:54;8.10;53.10
3478;DHT22;37937;61.490;23.506;2023-06-05T00:42:20;8.10;52.70
3478;DHT22;37937;61.490;23.506;2023-06-05T00:44:45;8.10;56.20
3478;DHT22;37937;61.490;23.506;2023-06-05T00:47:14;8.10;56.30
3478;DHT22;37937;61.490;23.506;2023-06-05T00:49:39;8.20;58.20
3478;DHT22;37937;61.490;23.506;2023-06-05T00:52:05;8.10;56.40
3478;DHT22;37937;61.490;23.506;2023-06-05T00:54:31;8.20;54.70
3478;DHT22;37937;61.490;23.506;2023-06-05T00:56:57;8.20;54.80
3478;DHT22;37937;61.490;23.506;2023-06-05T00:59:23;8.20;57.40
3478;DHT22;37937;61.490;23.506;2023-06-05T01:01:48;8.20;58.00
3478;DHT22;37937;61.490;23.506;2023-06-05T01:04:15;8.20;62.00
3478;DHT22;37937;61.490;23.506;2023-06-05T01:06:41;8.30;59.50
3478;DHT22;37937;61.490;23.506;2023-06-05T01:09:07;8.20;57.90
3478;DHT22;37937;61.490;23.506;2023-06-05T01:11:40;8.30;58.80
3478;DHT22;37937;61.490;23.506;2023-06-05T01:14:11;8.30;57.20
3478;DHT22;37937;61.490;23.506;2023-06-05T01:16:41;8.30;57.00
3478;DHT22;37937;61.490;23.506;2023-06-05T01:19:08;8.30;58.10
3478;DHT22;37937;61.490;23.506;2023-06-05T01:21:39;8.30;55.50
3478;DHT22;37937;61.490;23.506;2023-06-05T01:24:05;8.30;57.90
3478;DHT22;37937;61.490;23.506;2023-06-05T01:26:36;8.30;64.10
3478;DHT22;37937;61.490;23.506;2023-06-05T01:29:04;8.30;56.80
3478;DHT22;37937;61.490;23.506;2023-06-05T01:31:30;8.30;59.20
3478;DHT22;37937;61.490;23.506;2023-06-05T01:34:02;8.30;58.60
3478;DHT22;37937;61.490;23.506;2023-06-05T01:36:31;8.30;68.00
3478;DHT22;37937;61.490;23.506;2023-06-05T01:38:57;8.40;58.80
3478;DHT22;37937;61.490;23.506;2023-06-05T01:41:24;8.40;56.00
3478;DHT22;37937;61.490;23.506;2023-06-05T01:43:51;8.40;62.70
3478;DHT22;37937;61.490;23.506;2023-06-05T01:46:19;8.40;59.70
3478;DHT22;37937;61.490;23.506;2023-06-05T01:48:46;8.40;65.70
3478;DHT22;37937;61.490;23.506;2023-06-05T01:51:11;8.40;66.00
3478;DHT22;37937;61.490;23.506;2023-06-05T01:53:37;8.30;75.80
3478;DHT22;37937;61.490;23.506;2023-06-05T01:56:03;8.30;74.30
3478;DHT22;37937;61.490;23.506;2023-06-05T01:58:31;8.30;55.20
3478;DHT22;37937;61.490;23.506;2023-06-05T02:00:57;8.40;62.90
3478;DHT22;37937;61.490;23.506;2023-06-05T02:03:23;8.40;67.10
3478;DHT22;37937;61.490;23.506;2023-06-05T02:05:49;8.30;73.00
3478;DHT22;37937;61.490;23.506;2023-06-05T02:08:16;8.30;70.80
3478;DHT22;37937;61.490;23.506;2023-06-05T02:10:48;8.20;58.00
3478;DHT22;37937;61.490;23.506;2023-06-05T02:13:14;8.20;82.50
3478;DHT22;37937;61.490;23.506;2023-06-05T02:15:44;8.20;65.60
3478;DHT22;37937;61.490;23.506;2023-06-05T02:18:10;8.10;73.80
3478;DHT22;37937;61.490;23.506;2023-06-05T02:20:36;8.10;85.40
3478;DHT22;37937;61.490;23.506;2023-06-05T02:23:02;8.00;68.30
3478;DHT22;37937;61.490;23.506;2023-06-05T02:25:28;8.00;87.10
3478;DHT22;37937;61.490;23.506;2023-06-05T02:27:54;8.00;90.70
3478;DHT22;37937;61.490;23.506;2023-06-05T02:30:20;7.90;91.80
3478;DHT22;37937;61.490;23.506;2023-06-05T02:32:46;8.00;84.70
3478;DHT22;37937;61.490;23.506;2023-06-05T02:35:12;7.90;86.50
3478;DHT22;37937;61.490;23.506;2023-06-05T02:37:39;7.90;94.00
3478;DHT22;37937;61.490;23.506;2023-06-05T02:40:11;7.90;92.50
3478;DHT22;37937;61.490;23.506;2023-06-05T02:42:38;8.00;90.50
3478;DHT22;37937;61.490;23.506;2023-06-05T02:45:03;8.00;93.80
3478;DHT22;37937;61.490;23.506;2023-06-05T02:47:30;8.00;93.20
3478;DHT22;37937;61.490;23.506;2023-06-05T02:49:56;8.00;97.00
3478;DHT22;37937;61.490;23.506;2023-06-05T02:52:22;8.00;99.70
3478;DHT22;37937;61.490;23.506;2023-06-05T02:54:48;8.10;97.20
3478;DHT22;37937;61.490;23.506;2023-06-05T02:57:13;7.90;99.90
3478;DHT22;37937;61.490;23.506;2023-06-05T02:59:41;8.10;99.20
3478;DHT22;37937;61.490;23.506;2023-06-05T03:02:06;8.10;99.90
3478;DHT22;37937;61.490;23.506;2023-06-05T03:04:32;8.10;98.10
3478;DHT22;37937;61.490;23.506;2023-06-05T03:06:58;8.20;99.90
3478;DHT22;37937;61.490;23.506;2023-06-05T03:09:24;8.20;99.50
3478;DHT22;37937;61.490;23.506;2023-06-05T03:11:50;8.30;99.90
3478;DHT22;37937;61.490;23.506;2023-06-05T03:14:15;8.30;99.90
3478;DHT22;37937;61.490;23.506;2023-06-05T03:16:41;8.30;99.90
3478;DHT22;37937;61.490;23.506;2023-06-05T03:19:08;8.40;98.20
3478;DHT22;37937;61.490;23.506;2023-06-05T03:21:35;8.50;96.20
3478;DHT22;37937;61.490;23.506;2023-06-05T03:24:01;8.50;99.90
3478;DHT22;37937;61.490;23.506;2023-06-05T03:26:27;8.60;98.50
3478;DHT22;37937;61.490;23.506;2023-06-05T03:28:52;8.60;97.00
3478;DHT22;37937;61.490;23.506;2023-06-05T03:31:18;8.70;97.40
3478;DHT22;37937;61.490;23.506;2023-06-05T03:33:44;8.70;99.90
3478;DHT22;37937;61.490;23.506;2023-06-05T03:36:10;8.80;99.80
3478;DHT22;37937;61.490;23.506;2023-06-05T03:38:35;8.90;96.00
3478;DHT22;37937;61.490;23.506;2023-06-05T03:41:01;8.90;96.60
3478;DHT22;37937;61.490;23.506;2023-06-05T03:43:27;9.10;87.40
3478;DHT22;37937;61.490;23.506;2023-06-05T03:45:52;9.00;91.80
3478;DHT22;37937;61.490;23.506;2023-06-05T03:48:18;9.10;91.70
3478;DHT22;37937;61.490;23.506;2023-06-05T03:50:47;9.10;94.30
3478;DHT22;37937;61.490;23.506;2023-06-05T03:53:13;9.20;91.90
3478;DHT22;37937;61.490;23.506;2023-06-05T03:55:39;9.20;88.50
3478;DHT22;37937;61.490;23.506;2023-06-05T03:58:15;9.10;94.50
3478;DHT22;37937;61.490;23.506;2023-06-05T04:00:42;9.30;92.40
3478;DHT22;37937;61.490;23.506;2023-06-05T04:03:08;9.50;89.70
3478;DHT22;37937;61.490;23.506;2023-06-05T04:05:37;9.60;90.30
3478;DHT22;37937;61.490;23.506;2023-06-05T04:08:03;10.00;81.70
3478;DHT22;37937;61.490;23.506;2023-06-05T04:10:29;10.60;81.40
3478;DHT22;37937;61.490;23.506;2023-06-05T04:12:55;10.80;59.00
3478;DHT22;37937;61.490;23.506;2023-06-05T04:15:22;11.30;56.50
3478;DHT22;37937;61.490;23.506;2023-06-05T04:17:48;11.80;53.50
3478;DHT22;37937;61.490;23.506;2023-06-05T04:20:13;12.60;47.50
3478;DHT22;37937;61.490;23.506;2023-06-05T04:22:40;13.30;38.70
3478;DHT22;37937;61.490;23.506;2023-06-05T04:25:05;13.10;39.60
3478;DHT22;37937;61.490;23.506;2023-06-05T04:27:31;13.80;34.90
3478;DHT22;37937;61.490;23.506;2023-06-05T04:29:57;14.40;26.60
3478;DHT22;37937;61.490;23.506;2023-06-05T04:32:23;14.20;24.90
3478;DHT22;37937;61.490;23.506;2023-06-05T04:34:48;14.70;24.20
3478;DHT22;37937;61.490;23.506;2023-06-05T04:37:14;15.10;22.70
3478;DHT22;37937;61.490;23.506;2023-06-05T04:39:39;15.40;18.40
3478;DHT22;37937;61.490;23.506;2023-06-05T04:42:05;14.90;17.00
3478;DHT22;37937;61.490;23.506;2023-06-05T04:44:32;15.70;17.30
3478;DHT22;37937;61.490;23.506;2023-06-05T04:46:58;15.60;14.00
3478;DHT22;37937;61.490;23.506;2023-06-05T04:49:23;15.90;14.30
3478;DHT22;37937;61.490;23.506;2023-06-05T04:51:49;16.00;12.30
3478;DHT22;37937;61.490;23.506;2023-06-05T04:54:15;16.30;13.80
3478;DHT22;37937;61.490;23.506;2023-06-05T04:56:41;16.90;10.00
3478;DHT22;37937;61.490;23.506;2023-06-05T04:59:07;16.20;7.70
3478;DHT22;37937;61.490;23.506;2023-06-05T05:01:33;16.30;9.00
3478;DHT22;37937;61.490;23.506;2023-06-05T05:03:58;16.20;8.50
3478;DHT22;37937;61.490;23.506;2023-06-05T05:06:25;16.90;7.20
3478;DHT22;37937;61.490;23.506;2023-06-05T05:08:50;16.90;4.00
3478;DHT22;37937;61.490;23.506;2023-06-05T05:11:16;17.40;4.70
3478;DHT22;37937;61.490;23.506;2023-06-05T05:13:43;16.30;3.70
3478;DHT22;37937;61.490;23.506;2023-06-05T05:16:09;17.10;5.90
3478;DHT22;37937;61.490;23.506;2023-06-05T05:18:35;17.20;2.20
3478;DHT22;37937;61.490;23.506;2023-06-05T05:21:02;17.30;3.20
3478;DHT22;37937;61.490;23.506;2023-06-05T05:23:28;18.10;2.10
3478;DHT22;37937;61.490;23.506;2023-06-05T05:25:53;17.40;2.60
3478;DHT22;37937;61.490;23.506;2023-06-05T05:28:19;16.60;1.00
3478;DHT22;37937;61.490;23.506;2023-06-05T05:30:45;16.40;2.00
3478;DHT22;37937;61.490;23.506;2023-06-05T05:33:10;16.20;2.00
3478;DHT22;37937;61.490;23.506;2023-06-05T05:35:36;16.60;1.40
3478;DHT22;37937;61.490;23.506;2023-06-05T05:38:02;17.00;2.00
3478;DHT22;37937;61.490;23.506;2023-06-05T05:40:27;16.50;1.00
3478;DHT22;37937;61.490;23.506;2023-06-05T05:42:53;17.60;1.80
3478;DHT22;37937;61.490;23.506;2023-06-05T05:45:19;17.40;1.00
3478;DHT22;37937;61.490;23.506;2023-06-05T05:47:44;17.10;1.00
3478;DHT22;37937;61.490;23.506;2023-06-05T05:50:10;17.50;1.00
3478;DHT22;37937;61.490;23.506;2023-06-05T05:52:36;17.70;1.00
3478;DHT22;37937;61.490;23.506;2023-06-05T05:55:01;17.20;1.00
3478;DHT22;37937;61.490;23.506;2023-06-05T05:57:28;17.70;1.00
3478;DHT22;37937;61.490;23.506;2023-06-05T05:59:54;18.50;1.00
3478;DHT22;37937;61.490;23.506;2023-06-05T06:02:20;18.60;1.00
3478;DHT22;37937;61.490;23.506;2023-06-05T06:04:46;18.40;1.00
3478;DHT22;37937;61.490;23.506;2023-06-05T06:07:12;17.80;1.00
3478;DHT22;37937;61.490;23.506;2023-06-05T06:09:38;17.70;1.00
3478;DHT22;37937;61.490;23.506;2023-06-05T06:12:04;17.90;1.00
3478;DHT22;37937;61.490;23.506;2023-06-05T06:14:35;17.60;1.00
3478;DHT22;37937;61.490;23.506;2023-06-05T06:17:01;17.60;1.00
3478;DHT22;37937;61.490;23.506;2023-06-05T06:19:27;17.80;1.00
3478;DHT22;37937;61.490;23.506;2023-06-05T06:21:54;17.20;1.00
3478;DHT22;37937;61.490;23.506;2023-06-05T06:24:20;17.90;1.00
3478;DHT22;37937;61.490;23.506;2023-06-05T06:26:47;18.40;1.00
3478;DHT22;37937;61.490;23.506;2023-06-05T06:29:23;18.10;1.00
3478;DHT22;37937;61.490;23.506;2023-06-05T06:31:50;17.90;1.00
3478;DHT22;37937;61.490;23.506;2023-06-05T06:34:16;17.20;1.00
3478;DHT22;37937;61.490;23.506;2023-06-05T06:36:42;17.60;1.00
3478;DHT22;37937;61.490;23.506;2023-06-05T06:39:09;17.50;1.00
3478;DHT22;37937;61.490;23.506;2023-06-05T06:41:35;17.70;1.00
3478;DHT22;37937;61.490;23.506;2023-06-05T06:44:01;17.30;1.00
3478;DHT22;37937;61.490;23.506;2023-06-05T06:46:27;17.60;1.00
3478;DHT22;37937;61.490;23.506;2023-06-05T06:48:53;17.80;1.00
3478;DHT22;37937;61.490;23.506;2023-06-05T06:51:18;17.70;1.00
3478;DHT22;37937;61.490;23.506;2023-06-05T06:53:44;16.80;1.00
3478;DHT22;37937;61.490;23.506;2023-06-05T06:56:09;16.70;1.00
3478;DHT22;37937;61.490;23.506;2023-06-05T06:58:35;17.20;1.00
3478;DHT22;37937;61.490;23.506;2023-06-05T07:01:01;17.60;1.00
3478;DHT22;37937;61.490;23.506;2023-06-05T07:03:27;17.80;1.00
3478;DHT22;37937;61.490;23.506;2023-06-05T07:05:53;18.10;1.00
3478;DHT22;37937;61.490;23.506;2023-06-05T07:08:19;18.40;1.00
3478;DHT22;37937;61.490;23.506;2023-06-05T07:10:44;18.00;1.00
3478;DHT22;37937;61.490;23.506;2023-06-05T07:13:10;18.20;1.00
3478;DHT22;37937;61.490;23.506;2023-06-05T07:15:35;17.60;1.00
3478;DHT22;37937;61.490;23.506;2023-06-05T07:18:01;18.00;1.00
3478;DHT22;37937;61.490;23.506;2023-06-05T07:20:27;18.00;1.00
3478;DHT22;37937;61.490;23.506;2023-06-05T07:22:52;18.00;1.00
3478;DHT22;37937;61.490;23.506;2023-06-05T07:25:18;18.10;1.00
3478;DHT22;37937;61.490;23.506;2023-06-05T07:27:46;18.40;1.00
3478;DHT22;37937;61.490;23.506;2023-06-05T07:30:11;18.30;1.00
3478;DHT22;37937;61.490;23.506;2023-06-05T07:32:39;17.70;1.00
3478;DHT22;37937;61.490;23.506;2023-06-05T07:35:08;18.20;1.00
3478;DHT22;37937;61.490;23.506;2023-06-05T07:37:34;18.10;1.00
3478;DHT22;37937;61.490;23.506;2023-06-05T07:39:59;18.40;1.00
3478;DHT22;37937;61.490;23.506;2023-06-05T07:42:25;18.50;1.00
3478;DHT22;37937;61.490;23.506;2023-06-05T07:44:50;18.40;1.00
3478;DHT22;37937;61.490;23.506;2023-06-05T07:47:18;18.30;1.00
3478;DHT22;37937;61.490;23.506;2023-06-05T07:49:44;18.40;1.00
3478;DHT22;37937;61.490;23.506;2023-06-05T07:52:09;18.00;1.00
3478;DHT22;37937;61.490;23.506;2023-06-05T07:54:35;18.60;1.00
3478;DHT22;37937;61.490;23.506;2023-06-05T07:57:01;18.50;1.00
3478;DHT22;37937;61.490;23.506;2023-06-05T07:59:26;18.50;1.00
3478;DHT22;37937;61.490;23.506;2023-06-05T08:01:53;18.40;1.00
3478;DHT22;37937;61.490;23.506;2023-06-05T08:04:19;18.50;1.00
3478;DHT22;37937;61.490;23.506;2023-06-05T08:06:45;18.60;1.00
3478;DHT22;37937;61.490;23.506;2023-06-05T08:09:11;18.50;1.00
3478;DHT22;37937;61.490;23.506;2023-06-05T08:11:40;18.70;1.00
3478;DHT22;37937;61.490;23.506;2023-06-05T08:14:07;18.30;1.00
3478;DHT22;37937;61.490;23.506;2023-06-05T08:16:33;18.40;1.00
3478;DHT22;37937;61.490;23.506;2023-06-05T08:18:59;18.10;1.00
3478;DHT22;37937;61.490;23.506;2023-06-05T08:21:24;17.90;1.00
3478;DHT22;37937;61.490;23.506;2023-06-05T08:23:50;18.50;1.00
3478;DHT22;37937;61.490;23.506;2023-06-05T08:26:18;19.30;1.00
3478;DHT22;37937;61.490;23.506;2023-06-05T08:28:43;18.20;1.00
3478;DHT22;37937;61.490;23.506;2023-06-05T08:31:09;18.80;1.00
3478;DHT22;37937;61.490;23.506;2023-06-05T08:33:36;19.30;1.00
3478;DHT22;37937;61.490;23.506;2023-06-05T08:36:02;19.20;1.00
3478;DHT22;37937;61.490;23.506;2023-06-05T08:38:28;19.10;1.00
3478;DHT22;37937;61.490;23.506;2023-06-05T08:40:55;19.10;1.00
3478;DHT22;37937;61.490;23.506;2023-06-05T08:43:22;19.10;1.00
3478;DHT22;37937;61.490;23.506;2023-06-05T08:45:49;18.80;1.00
3478;DHT22;37937;61.490;23.506;2023-06-05T08:48:16;18.80;1.00
3478;DHT22;37937;61.490;23.506;2023-06-05T08:50:43;18.60;1.00
3478;DHT22;37937;61.490;23.506;2023-06-05T08:53:09;19.10;1.00
3478;DHT22;37937;61.490;23.506;2023-06-05T08:55:38;19.00;1.00
3478;DHT22;37937;61.490;23.506;2023-06-05T08:58:04;18.80;1.00
3478;DHT22;37937;61.490;23.506;2023-06-05T09:00:30;18.80;1.00
3478;DHT22;37937;61.490;23.506;2023-06-05T09:02:56;19.20;1.00
3478;DHT22;37937;61.490;23.506;2023-06-05T09:05:22;19.20;1.00
3478;DHT22;37937;61.490;23.506;2023-06-05T09:07:48;19.60;1.00
3478;DHT22;37937;61.490;23.506;2023-06-05T09:10:27;19.30;1.00
3478;DHT22;37937;61.490;23.506;2023-06-05T09:12:56;19.50;1.00
3478;DHT22;37937;61.490;23.506;2023-06-05T09:15:23;19.50;1.00
3478;DHT22;37937;61.490;23.506;2023-06-05T09:18:04;20.30;1.00
3478;DHT22;37937;61.490;23.506;2023-06-05T09:20:33;20.20;1.00
3478;DHT22;37937;61.490;23.506;2023-06-05T09:23:03;20.20;1.00
3478;DHT22;37937;61.490;23.506;2023-06-05T09:25:43;20.00;1.00
3478;DHT22;37937;61.490;23.506;2023-06-05T09:28:09;20.10;1.00
3478;DHT22;37937;61.490;23.506;2023-06-05T09:30:42;20.60;1.00
3478;DHT22;37937;61.490;23.506;2023-06-05T09:33:18;20.60;1.00
3478;DHT22;37937;61.490;23.506;2023-06-05T09:35:44;20.60;1.00
3478;DHT22;37937;61.490;23.506;2023-06-05T09:38:25;20.60;1.00
3478;DHT22;37937;61.490;23.506;2023-06-05T09:40:51;21.30;1.00
3478;DHT22;37937;61.490;23.506;2023-06-05T09:43:20;21.00;1.00
3478;DHT22;37937;61.490;23.506;2023-06-05T09:45:46;21.10;1.00
3478;DHT22;37937;61.490;23.506;2023-06-05T09:48:15;21.10;1.00
3478;DHT22;37937;61.490;23.506;2023-06-05T09:50:41;21.30;1.00
3478;DHT22;37937;61.490;23.506;2023-06-05T09:53:09;21.50;1.00
3478;DHT22;37937;61.490;23.506;2023-06-05T09:55:36;21.10;1.00
3478;DHT22;37937;61.490;23.506;2023-06-05T09:58:03;21.60;1.00
3478;DHT22;37937;61.490;23.506;2023-06-05T10:00:36;21.30;1.00
3478;DHT22;37937;61.490;23.506;2023-06-05T10:03:04;20.60;1.00
3478;DHT22;37937;61.490;23.506;2023-06-05T10:05:31;21.00;1.00
3478;DHT22;37937;61.490;23.506;2023-06-05T10:07:58;21.20;1.00
3478;DHT22;37937;61.490;23.506;2023-06-05T10:10:23;21.20;1.00
3478;DHT22;37937;61.490;23.506;2023-06-05T10:12:49;21.40;1.00
3478;DHT22;37937;61.490;23.506;2023-06-05T10:15:15;21.30;1.00
3478;DHT22;37937;61.490;23.506;2023-06-05T10:17:41;21.20;1.00
3478;DHT22;37937;61.490;23.506;2023-06-05T10:20:07;21.80;1.00
3478;DHT22;37937;61.490;23.506;2023-06-05T10:22:33;21.70;1.00
3478;DHT22;37937;61.490;23.506;2023-06-05T10:25:00;21.60;1.00
3478;DHT22;37937;61.490;23.506;2023-06-05T10:35:37;20.40;1.00
3478;DHT22;37937;61.490;23.506;2023-06-05T10:40:34;20.60;1.00
3478;DHT22;37937;61.490;23.506;2023-06-05T10:45:45;20.20;1.00
3478;DHT22;37937;61.490;23.506;2023-06-05T10:48:10;20.40;1.00
3478;DHT22;37937;61.490;23.506;2023-06-05T10:50:36;19.40;1.00
3478;DHT22;37937;61.490;23.506;2023-06-05T10:53:01;18.70;1.00
3478;DHT22;37937;61.490;23.506;2023-06-05T10:55:30;18.70;1.00
3478;DHT22;37937;61.490;23.506;2023-06-05T10:58:06;18.70;1.00
3478;DHT22;37937;61.490;23.506;2023-06-05T11:00:33;18.70;1.00
3478;DHT22;37937;61.490;23.506;2023-06-05T11:02:59;18.60;1.00
3478;DHT22;37937;61.490;23.506;2023-06-05T11:05:25;18.70;1.00
3478;DHT22;37937;61.490;23.506;2023-06-05T11:10:35;18.90;1.00
3478;DHT22;37937;61.490;23.506;2023-06-05T11:13:01;18.60;1.00
3478;DHT22;37937;61.490;23.506;2023-06-05T11:17:56;17.80;1.00
3478;DHT22;37937;61.490;23.506;2023-06-05T11:25:28;19.00;1.00
3478;DHT22;37937;61.490;23.506;2023-06-05T11:28:04;18.80;1.00
3478;DHT22;37937;61.490;23.506;2023-06-05T11:30:39;18.80;1.00
3478;DHT22;37937;61.490;23.506;2023-06-05T11:33:11;19.20;1.00
3478;DHT22;37937;61.490;23.506;2023-06-05T11:35:38;18.60;1.00
3478;DHT22;37937;61.490;23.506;2023-06-05T11:38:10;17.80;1.00
3478;DHT22;37937;61.490;23.506;2023-06-05T11:40:36;17.60;1.00
3478;DHT22;37937;61.490;23.506;2023-06-05T11:43:08;17.50;1.00
3478;DHT22;37937;61.490;23.506;2023-06-05T11:45:35;17.30;1.00
3478;DHT22;37937;61.490;23.506;2023-06-05T11:48:05;17.30;1.00
3478;DHT22;37937;61.490;23.506;2023-06-05T11:50:31;17.90;1.00
3478;DHT22;37937;61.490;23.506;2023-06-05T11:53:03;18.10;1.00
3478;DHT22;37937;61.490;23.506;2023-06-05T11:55:29;18.20;1.00
3478;DHT22;37937;61.490;23.506;2023-06-05T11:58:08;18.70;1.00
3478;DHT22;37937;61.490;23.506;2023-06-05T12:00:34;18.60;1.00
3478;DHT22;37937;61.490;23.506;2023-06-05T12:02:59;18.80;1.00
3478;DHT22;37937;61.490;23.506;2023-06-05T12:05:25;19.10;1.00
3478;DHT22;37937;61.490;23.506;2023-06-05T12:07:51;19.10;1.00
3478;DHT22;37937;61.490;23.506;2023-06-05T12:10:16;19.10;1.00
3478;DHT22;37937;61.490;23.506;2023-06-05T12:12:51;19.00;1.00
3478;DHT22;37937;61.490;23.506;2023-06-05T12:15:17;19.10;1.00
3478;DHT22;37937;61.490;23.506;2023-06-05T12:20:16;19.00;1.00
3478;DHT22;37937;61.490;23.506;2023-06-05T12:22:41;18.90;1.00
3478;DHT22;37937;61.490;23.506;2023-06-05T12:25:20;18.70;1.00
3478;DHT22;37937;61.490;23.506;2023-06-05T12:27:46;18.70;1.00
3478;DHT22;37937;61.490;23.506;2023-06-05T12:30:12;18.70;1.00
3478;DHT22;37937;61.490;23.506;2023-06-05T12:32:38;19.20;1.00
3478;DHT22;37937;61.490;23.506;2023-06-05T12:35:04;18.60;1.00
3478;DHT22;37937;61.490;23.506;2023-06-05T12:37:32;18.80;1.00
3478;DHT22;37937;61.490;23.506;2023-06-05T12:40:00;19.10;1.00
3478;DHT22;37937;61.490;23.506;2023-06-05T12:42:26;19.00;1.00
3478;DHT22;37937;61.490;23.506;2023-06-05T12:44:52;19.30;1.00
3478;DHT22;37937;61.490;23.506;2023-06-05T12:47:17;19.10;1.00
3478;DHT22;37937;61.490;23.506;2023-06-05T12:49:43;18.90;1.00
3478;DHT22;37937;61.490;23.506;2023-06-05T12:52:08;18.70;1.00
3478;DHT22;37937;61.490;23.506;2023-06-05T12:54:37;18.60;1.00
3478;DHT22;37937;61.490;23.506;2023-06-05T12:57:04;18.40;1.00
3478;DHT22;37937;61.490;23.506;2023-06-05T12:59:32;18.20;1.00
3478;DHT22;37937;61.490;23.506;2023-06-05T13:01:57;18.50;1.00
3478;DHT22;37937;61.490;23.506;2023-06-05T13:04:23;18.50;1.00
3478;DHT22;37937;61.490;23.506;2023-06-05T13:06:49;18.20;1.00
3478;DHT22;37937;61.490;23.506;2023-06-05T13:09:15;18.10;1.00
3478;DHT22;37937;61.490;23.506;2023-06-05T13:11:41;18.50;1.00
3478;DHT22;37937;61.490;23.506;2023-06-05T13:14:07;18.50;1.00
3478;DHT22;37937;61.490;23.506;2023-06-05T13:16:33;18.10;1.00
3478;DHT22;37937;61.490;23.506;2023-06-05T13:18:58;17.90;1.00
3478;DHT22;37937;61.490;23.506;2023-06-05T13:21:24;17.70;1.00
3478;DHT22;37937;61.490;23.506;2023-06-05T13:23:50;17.80;1.00
3478;DHT22;37937;61.490;23.506;2023-06-05T13:26:16;17.80;1.00
3478;DHT22;37937;61.490;23.506;2023-06-05T13:28:42;17.90;1.00
3478;DHT22;37937;61.490;23.506;2023-06-05T13:31:09;17.70;1.00
3478;DHT22;37937;61.490;23.506;2023-06-05T13:33:36;17.70;1.00
3478;DHT22;37937;61.490;23.506;2023-06-05T13:36:02;18.00;1.00
3478;DHT22;37937;61.490;23.506;2023-06-05T13:38:27;17.90;1.00
3478;DHT22;37937;61.490;23.506;2023-06-05T13:40:53;17.90;1.00
3478;DHT22;37937;61.490;23.506;2023-06-05T13:43:19;17.70;1.00
3478;DHT22;37937;61.490;23.506;2023-06-05T13:45:45;17.20;1.00
3478;DHT22;37937;61.490;23.506;2023-06-05T13:48:11;16.90;1.00
3478;DHT22;37937;61.490;23.506;2023-06-05T13:50:36;16.60;1.00
3478;DHT22;37937;61.490;23.506;2023-06-05T13:53:02;16.60;1.00
3478;DHT22;37937;61.490;23.506;2023-06-05T13:55:28;16.50;1.00
3478;DHT22;37937;61.490;23.506;2023-06-05T13:57:53;16.60;1.00
3478;DHT22;37937;61.490;23.506;2023-06-05T14:00:21;16.80;1.00
3478;DHT22;37937;61.490;23.506;2023-06-05T14:02:47;16.80;1.00
3478;DHT22;37937;61.490;23.506;2023-06-05T14:05:12;16.80;1.00
3478;DHT22;37937;61.490;23.506;2023-06-05T14:07:38;16.80;1.00
3478;DHT22;37937;61.490;23.506;2023-06-05T14:10:04;16.80;1.00
3478;DHT22;37937;61.490;23.506;2023-06-05T14:12:30;16.80;1.00
3478;DHT22;37937;61.490;23.506;2023-06-05T14:14:56;16.80;1.00
3478;DHT22;37937;61.490;23.506;2023-06-05T14:17:21;16.90;1.00
3478;DHT22;37937;61.490;23.506;2023-06-05T14:19:47;16.80;1.00
3478;DHT22;37937;61.490;23.506;2023-06-05T14:22:13;16.60;1.00
3478;DHT22;37937;61.490;23.506;2023-06-05T14:24:39;16.80;1.00
3478;DHT22;37937;61.490;23.506;2023-06-05T14:27:05;16.70;1.00
3478;DHT22;37937;61.490;23.506;2023-06-05T14:29:31;16.90;1.00
3478;DHT22;37937;61.490;23.506;2023-06-05T14:31:56;16.80;1.00
3478;DHT22;37937;61.490;23.506;2023-06-05T14:34:22;16.50;1.00
3478;DHT22;37937;61.490;23.506;2023-06-05T14:36:47;16.50;1.00
3478;DHT22;37937;61.490;23.506;2023-06-05T14:39:17;16.40;1.00
3478;DHT22;37937;61.490;23.506;2023-06-05T14:41:43;16.20;1.00
3478;DHT22;37937;61.490;23.506;2023-06-05T14:44:08;16.10;1.00
3478;DHT22;37937;61.490;23.506;2023-06-05T14:46:34;16.20;1.00
3478;DHT22;37937;61.490;23.506;2023-06-05T14:48:59;16.00;1.00
3478;DHT22;37937;61.490;23.506;2023-06-05T14:51:25;16.10;1.00
3478;DHT22;37937;61.490;23.506;2023-06-05T14:53:51;16.00;1.00
3478;DHT22;37937;61.490;23.506;2023-06-05T14:56:17;16.00;1.00
3478;DHT22;37937;61.490;23.506;2023-06-05T14:58:42;16.00;1.00
3478;DHT22;37937;61.490;23.506;2023-06-05T15:01:08;16.00;1.00
3478;DHT22;37937;61.490;23.506;2023-06-05T15:03:33;16.00;1.00
3478;DHT22;37937;61.490;23.506;2023-06-05T15:05:59;15.90;1.00
3478;DHT22;37937;61.490;23.506;2023-06-05T15:08:25;15.80;1.00
3478;DHT22;37937;61.490;23.506;2023-06-05T15:10:50;15.70;1.00
3478;DHT22;37937;61.490;23.506;2023-06-05T15:13:16;15.70;1.00
3478;DHT22;37937;61.490;23.506;2023-06-05T15:15:41;15.70;1.00
3478;DHT22;37937;61.490;23.506;2023-06-05T15:18:07;15.70;1.00
3478;DHT22;37937;61.490;23.506;2023-06-05T15:20:33;15.60;1.00
3478;DHT22;37937;61.490;23.506;2023-06-05T15:22:58;15.50;1.00
3478;DHT22;37937;61.490;23.506;2023-06-05T15:25:25;15.50;1.00
3478;DHT22;37937;61.490;23.506;2023-06-05T15:27:51;15.50;1.00
3478;DHT22;37937;61.490;23.506;2023-06-05T15:30:16;15.50;1.00
3478;DHT22;37937;61.490;23.506;2023-06-05T15:32:42;15.40;1.00
3478;DHT22;37937;61.490;23.506;2023-06-05T15:35:10;15.50;1.00
3478;DHT22;37937;61.490;23.506;2023-06-05T15:37:35;15.40;1.00
3478;DHT22;37937;61.490;23.506;2023-06-05T15:40:01;15.30;1.00
3478;DHT22;37937;61.490;23.506;2023-06-05T15:42:27;15.30;1.00
3478;DHT22;37937;61.490;23.506;2023-06-05T15:45:04;15.20;1.00
3478;DHT22;37937;61.490;23.506;2023-06-05T15:47:30;15.20;1.00
3478;DHT22;37937;61.490;23.506;2023-06-05T15:49:56;15.20;1.00
3478;DHT22;37937;61.490;23.506;2023-06-05T15:52:21;15.10;1.00
3478;DHT22;37937;61.490;23.506;2023-06-05T15:54:47;15.00;1.00
3478;DHT22;37937;61.490;23.506;2023-06-05T15:57:12;15.10;1.00
3478;DHT22;37937;61.490;23.506;2023-06-05T15:59:38;15.10;1.00
3478;DHT22;37937;61.490;23.506;2023-06-05T16:02:04;15.10;1.00
3478;DHT22;37937;61.490;23.506;2023-06-05T16:04:29;15.10;1.00
3478;DHT22;37937;61.490;23.506;2023-06-05T16:06:57;15.20;1.00